Terminal Aerodrome Forecast
Issued by NWS

Home | Current Version | Previous Version | Text Only | Print | Product List | Glossary On
Versions: 1 2 3 4 5 6 7 8 9 10 11 12 13 14 15 16 17 18 19 20 21 22 23
000
FTUS46 KPDT 241100
TAFBDN
TAF
KBDN 241137Z 2412/2512 21011KT P6SM SCT025 BKN060
     FM241700 24018G25KT P6SM BKN050
     FM242100 29022G32KT P6SM -SHRA BKN050
     FM250200 31011G18KT P6SM BKN050 OVC100
     FM250500 VRB05KT P6SM -SHRASN BKN020 OVC035=

USA.gov is the U.S. government's official web portal to all federal, state and local government web resources and services.